createdAt,value
2019-04-04T00:01:37.401Z,5.63
2019-04-04T00:04:07.882Z,6.77
2019-04-04T00:06:38.322Z,4.40
2019-04-04T00:09:10.867Z,4.97
2019-04-04T00:11:41.329Z,5.83
2019-04-04T00:14:13.092Z,6.67
2019-04-04T00:16:48.837Z,5.67
2019-04-04T00:19:19.131Z,4.70
2019-04-04T00:21:49.608Z,6.57
2019-04-04T00:24:20.040Z,4.10
2019-04-04T00:26:50.533Z,5.27
2019-04-04T00:29:21.483Z,4.17
2019-04-04T00:31:52.023Z,6.00
2019-04-04T00:34:22.503Z,4.87
2019-04-04T00:36:52.942Z,4.00
2019-04-04T00:39:23.410Z,4.67
2019-04-04T00:41:53.899Z,4.33
2019-04-04T00:44:24.339Z,8.10
2019-04-04T00:46:54.782Z,4.93
2019-04-04T00:49:25.270Z,4.43
2019-04-04T00:51:55.692Z,4.27
2019-04-04T00:54:26.165Z,6.20
2019-04-04T00:56:56.595Z,4.50
2019-04-04T00:59:27.058Z,4.77
2019-04-04T01:01:57.639Z,5.13
2019-04-04T01:04:30.804Z,7.00
2019-04-04T01:07:00.384Z,5.13
2019-04-04T01:09:30.858Z,6.80
2019-04-04T01:12:01.305Z,7.40
2019-04-04T01:14:31.803Z,4.90
2019-04-04T01:17:04.154Z,5.83
2019-04-04T01:19:34.415Z,6.17
2019-04-04T01:22:05.003Z,7.87
2019-04-04T01:24:35.477Z,6.80
2019-04-04T01:27:06.288Z,7.70
2019-04-04T01:29:39.003Z,5.73
2019-04-04T01:32:09.550Z,8.13
2019-04-04T01:34:40.091Z,6.83
2019-04-04T01:37:10.565Z,5.60
2019-04-04T01:39:40.995Z,7.97
2019-04-04T01:42:11.482Z,6.40
2019-04-04T01:44:42.285Z,9.50
2019-04-04T01:47:14.950Z,6.53
2019-04-04T01:49:45.416Z,5.47
2019-04-04T01:52:15.900Z,6.50
2019-04-04T01:54:46.381Z,8.03
2019-04-04T01:57:16.811Z,8.80
2019-04-04T01:59:47.297Z,8.50
2019-04-04T02:02:18.431Z,6.33
2019-04-04T02:04:48.971Z,6.40
2019-04-04T02:07:19.411Z,8.20
2019-04-04T02:09:49.899Z,6.53
2019-04-04T02:12:20.443Z,6.67
2019-04-04T02:14:50.923Z,8.57
2019-04-04T02:17:22.355Z,6.97
2019-04-04T02:19:55.597Z,7.33
2019-04-04T02:22:25.433Z,6.03
2019-04-04T02:24:55.929Z,10.23
2019-04-04T02:27:26.360Z,6.60
2019-04-04T02:29:56.793Z,7.90
2019-04-04T02:32:27.792Z,11.13
2019-04-04T02:34:58.218Z,9.17
2019-04-04T02:37:28.765Z,8.70
2019-04-04T02:39:59.240Z,8.80
2019-04-04T02:42:29.669Z,7.53
2019-04-04T02:45:00.108Z,7.97
2019-04-04T02:47:30.548Z,6.80
2019-04-04T02:50:02.201Z,9.97
2019-04-04T02:52:32.765Z,10.20
2019-04-04T02:55:03.361Z,7.63
2019-04-04T02:57:33.809Z,9.20
2019-04-04T03:00:05.316Z,9.40
2019-04-04T03:02:36.957Z,12.33
2019-04-04T03:05:07.824Z,13.63
2019-04-04T03:07:38.320Z,21.93
2019-04-04T03:10:09.233Z,22.70
2019-04-04T03:12:39.891Z,11.67
2019-04-04T03:15:11.285Z,12.20
2019-04-04T03:17:41.724Z,15.10
2019-04-04T03:20:16.366Z,10.67
2019-04-04T03:22:44.660Z,14.80
2019-04-04T03:25:15.697Z,14.10
2019-04-04T03:27:46.272Z,9.00
2019-04-04T03:30:17.492Z,10.03
2019-04-04T03:32:54.142Z,7.90
2019-04-04T03:35:25.786Z,9.57
2019-04-04T03:37:52.555Z,11.80
2019-04-04T03:40:25.594Z,7.63
2019-04-04T03:42:55.211Z,10.30
2019-04-04T03:45:27.338Z,11.97
2019-04-04T03:47:58.027Z,15.10
2019-04-04T03:50:30.386Z,13.53
2019-04-04T03:53:00.703Z,15.47
2019-04-04T03:55:31.152Z,28.47
2019-04-04T03:58:01.737Z,18.37
2019-04-04T04:00:32.493Z,17.33
2019-04-04T04:03:02.940Z,17.07
2019-04-04T04:05:35.567Z,19.80
2019-04-04T04:08:05.871Z,21.40
2019-04-04T04:10:36.308Z,19.47
2019-04-04T04:13:07.021Z,24.17
2019-04-04T04:15:37.459Z,27.07
2019-04-04T04:18:07.906Z,24.03
2019-04-04T04:20:38.393Z,12.67
2019-04-04T04:23:08.834Z,31.87
2019-04-04T04:25:39.319Z,18.83
2019-04-04T04:28:09.791Z,22.60
2019-04-04T04:30:40.842Z,22.27
2019-04-04T04:33:11.357Z,28.03
2019-04-04T04:35:42.409Z,22.90
2019-04-04T04:38:13.012Z,34.20
2019-04-04T04:40:46.853Z,25.30
2019-04-04T04:43:16.092Z,14.13
2019-04-04T04:45:46.725Z,19.17
2019-04-04T04:48:17.176Z,22.03
2019-04-04T04:50:49.738Z,25.87
2019-04-04T04:53:20.231Z,32.47
2019-04-04T04:55:51.234Z,40.67
2019-04-04T04:58:22.264Z,19.00
2019-04-04T05:00:52.841Z,24.33
2019-04-04T05:03:24.266Z,25.97
2019-04-04T05:05:55.334Z,20.63
2019-04-04T05:08:25.829Z,18.50
2019-04-04T05:10:56.307Z,22.77
2019-04-04T05:13:28.806Z,26.53
2019-04-04T05:15:59.028Z,24.93
2019-04-04T05:18:29.529Z,20.00
2019-04-04T05:21:01.865Z,18.10
2019-04-04T05:23:32.401Z,15.20
2019-04-04T05:26:03.332Z,12.20
2019-04-04T05:28:33.859Z,13.97
2019-04-04T05:31:04.318Z,15.47
2019-04-04T05:33:34.890Z,14.17
2019-04-04T05:36:06.063Z,11.80
2019-04-04T05:38:36.594Z,12.40
2019-04-04T05:41:07.221Z,12.20
2019-04-04T05:43:38.140Z,15.00
2019-04-04T05:46:09.080Z,15.20
2019-04-04T05:48:39.638Z,19.17
2019-04-04T05:51:10.234Z,17.17
2019-04-04T05:53:40.717Z,15.07
2019-04-04T05:56:14.837Z,24.87
2019-04-04T05:58:43.391Z,15.63
2019-04-04T06:01:15.386Z,20.80
2019-04-04T06:03:47.888Z,18.00
2019-04-04T06:06:18.137Z,18.37
2019-04-04T06:08:48.611Z,20.23
2019-04-04T06:11:21.649Z,21.27
2019-04-04T06:13:51.288Z,13.17
2019-04-04T06:16:21.787Z,10.43
2019-04-04T06:18:52.302Z,9.10
2019-04-04T06:21:22.775Z,10.60
2019-04-04T06:23:55.663Z,12.63
2019-04-04T06:26:25.646Z,6.97
2019-04-04T06:28:56.210Z,9.17
2019-04-04T06:31:30.661Z,5.90
2019-04-04T06:33:58.938Z,10.47
2019-04-04T06:36:29.524Z,6.57
2019-04-04T06:39:00.145Z,8.80
2019-04-04T06:41:32.391Z,6.30
2019-04-04T06:44:06.278Z,7.87
2019-04-04T06:46:36.742Z,6.07
2019-04-04T06:49:07.251Z,11.00
2019-04-04T06:51:37.905Z,36.13
2019-04-04T06:54:08.389Z,6.90
2019-04-04T06:56:38.836Z,9.83
2019-04-04T06:59:12.168Z,6.87
2019-04-04T07:01:41.568Z,8.67
2019-04-04T07:04:12.067Z,7.80
2019-04-04T07:06:42.575Z,6.43
2019-04-04T07:09:13.577Z,9.43
2019-04-04T07:11:44.250Z,6.83
2019-04-04T07:14:14.702Z,6.50
2019-04-04T07:16:45.224Z,6.33
2019-04-04T07:19:15.705Z,6.23
2019-04-04T07:21:46.200Z,7.23
2019-04-04T07:24:16.662Z,6.13
2019-04-04T07:26:47.121Z,8.37
2019-04-04T07:29:17.645Z,6.77
2019-04-04T07:31:48.107Z,8.50
2019-04-04T07:34:18.630Z,7.03
2019-04-04T07:36:51.185Z,6.87
2019-04-04T07:39:21.482Z,6.87
2019-04-04T07:41:51.940Z,8.27
2019-04-04T07:44:23.303Z,8.07
2019-04-04T07:46:54.393Z,8.97
2019-04-04T07:49:24.904Z,6.97
2019-04-04T07:51:55.388Z,6.67
2019-04-04T07:54:25.839Z,8.70
2019-04-04T07:56:56.439Z,6.73
2019-04-04T07:59:26.881Z,9.67
2019-04-04T08:01:57.841Z,7.70
2019-04-04T08:04:28.332Z,9.73
2019-04-04T08:06:58.876Z,6.13
2019-04-04T08:09:29.365Z,9.23
2019-04-04T08:11:59.869Z,6.33
2019-04-04T08:14:30.392Z,8.33
2019-04-04T08:17:00.890Z,9.87
2019-04-04T08:19:31.339Z,8.30
2019-04-04T08:22:02.032Z,7.00
2019-04-04T08:24:32.615Z,12.03
2019-04-04T08:27:03.143Z,6.57
2019-04-04T08:29:33.679Z,8.60
2019-04-04T08:32:04.233Z,6.97
2019-04-04T08:34:36.429Z,7.97
2019-04-04T08:37:07.071Z,8.23
2019-04-04T08:39:37.559Z,6.90
2019-04-04T08:42:08.051Z,7.17
2019-04-04T08:44:38.519Z,7.37
2019-04-04T08:47:09.017Z,8.33
2019-04-04T08:49:39.469Z,8.40
2019-04-04T08:52:16.465Z,8.43
2019-04-04T08:54:42.147Z,6.27
2019-04-04T08:57:12.641Z,7.83
2019-04-04T08:59:43.138Z,6.57
2019-04-04T09:02:13.672Z,6.50
2019-04-04T09:04:44.254Z,8.63
2019-04-04T09:07:14.712Z,6.27
2019-04-04T09:09:45.272Z,6.53
2019-04-04T09:12:15.766Z,6.87
2019-04-04T09:14:46.311Z,6.07
2019-04-04T09:17:16.770Z,9.73
2019-04-04T09:19:47.313Z,5.63
2019-04-04T09:22:17.763Z,7.03
2019-04-04T09:24:48.247Z,6.80
2019-04-04T09:27:18.895Z,7.97
2019-04-04T09:29:49.329Z,6.00
2019-04-04T09:32:19.784Z,10.50
2019-04-04T09:34:50.461Z,6.97
2019-04-04T09:37:20.942Z,7.97
2019-04-04T09:39:51.381Z,6.70
2019-04-04T09:42:21.864Z,6.70
2019-04-04T09:44:52.349Z,7.60
2019-04-04T09:47:22.971Z,6.43
2019-04-04T09:49:53.469Z,7.10
2019-04-04T09:52:23.959Z,6.93
2019-04-04T09:54:54.517Z,7.07
2019-04-04T09:57:25.022Z,9.77
2019-04-04T09:59:55.816Z,9.00
2019-04-04T10:02:26.309Z,7.70
2019-04-04T10:04:56.813Z,9.93
2019-04-04T10:07:27.286Z,6.43
2019-04-04T10:09:57.913Z,8.37
2019-04-04T10:12:29.696Z,10.73
2019-04-04T10:15:00.255Z,7.33
2019-04-04T10:17:30.747Z,7.50
2019-04-04T10:20:01.204Z,7.93
2019-04-04T10:22:31.746Z,6.17
2019-04-04T10:25:02.199Z,6.17
2019-04-04T10:27:32.702Z,6.23
2019-04-04T10:30:03.477Z,9.73
2019-04-04T10:32:33.977Z,9.77
2019-04-04T10:35:04.850Z,6.03
2019-04-04T10:37:35.327Z,8.03
2019-04-04T10:40:06.451Z,8.37
2019-04-04T10:42:36.959Z,7.03
2019-04-04T10:45:08.330Z,10.90
2019-04-04T10:47:38.825Z,8.50
2019-04-04T10:50:09.828Z,7.80
2019-04-04T10:52:40.280Z,7.63
2019-04-04T10:55:10.971Z,7.87
2019-04-04T10:57:41.483Z,13.50
2019-04-04T11:00:12.697Z,8.40
2019-04-04T11:02:43.254Z,9.97
2019-04-04T11:05:14.019Z,7.70
2019-04-04T11:07:45.380Z,9.33
2019-04-04T11:10:16.016Z,7.50
2019-04-04T11:12:46.511Z,10.30
2019-04-04T11:15:17.061Z,7.17
2019-04-04T11:17:47.550Z,9.13
2019-04-04T11:20:18.048Z,11.07
2019-04-04T11:22:48.640Z,9.77
2019-04-04T11:25:19.157Z,6.40
2019-04-04T11:27:49.643Z,7.73
2019-04-04T11:30:20.362Z,7.40
2019-04-04T11:32:50.841Z,8.90
2019-04-04T11:35:21.295Z,7.47
2019-04-04T11:37:51.774Z,8.63
2019-04-04T11:40:22.214Z,7.97
2019-04-04T11:42:52.707Z,6.27
2019-04-04T11:45:23.329Z,5.83
2019-04-04T11:47:53.780Z,6.83
2019-04-04T11:50:24.239Z,13.33
2019-04-04T11:52:54.730Z,7.33
2019-04-04T11:55:25.185Z,9.07
2019-04-04T11:57:55.701Z,9.40
2019-04-04T12:00:37.060Z,8.67
2019-04-04T12:03:07.535Z,6.57
2019-04-04T12:05:38.231Z,6.97
2019-04-04T12:08:08.736Z,10.17
2019-04-04T12:10:39.220Z,8.77
2019-04-04T12:13:09.616Z,7.10
2019-04-04T12:15:40.069Z,7.10
2019-04-04T12:18:10.469Z,5.60
2019-04-04T12:20:43.309Z,9.33
2019-04-04T12:23:13.058Z,9.13
2019-04-04T12:25:43.553Z,10.77
2019-04-04T12:28:13.965Z,8.33
2019-04-04T12:30:44.421Z,10.83
2019-04-04T12:33:14.839Z,9.57
2019-04-04T12:35:45.291Z,12.87
2019-04-04T12:38:15.736Z,5.10
2019-04-04T12:40:46.157Z,7.40
2019-04-04T12:43:16.550Z,6.73
2019-04-04T12:45:47.018Z,5.90
2019-04-04T12:48:17.467Z,8.50
2019-04-04T12:50:48.562Z,6.80
2019-04-04T12:53:19.108Z,5.47
2019-04-04T12:55:49.523Z,12.13
2019-04-04T12:58:19.965Z,5.23
2019-04-04T13:00:50.366Z,6.03
2019-04-04T13:03:22.415Z,7.20
2019-04-04T13:05:53.051Z,6.13
2019-04-04T13:08:23.506Z,5.43
2019-04-04T13:10:54.191Z,11.43
2019-04-04T13:13:24.607Z,10.23
2019-04-04T13:15:55.090Z,7.60
2019-04-04T13:18:25.513Z,10.57
2019-04-04T13:20:55.958Z,9.20
2019-04-04T13:23:27.364Z,9.60
2019-04-04T13:25:57.848Z,8.73
2019-04-04T13:28:28.290Z,12.00
2019-04-04T13:30:59.103Z,8.03
2019-04-04T13:33:29.528Z,8.37
2019-04-04T13:35:59.991Z,7.27
2019-04-04T13:38:30.480Z,7.43
2019-04-04T13:41:00.895Z,7.43
2019-04-04T13:43:31.334Z,11.20
2019-04-04T13:46:01.751Z,5.63
2019-04-04T13:48:32.194Z,4.23
2019-04-04T13:51:02.631Z,6.23
2019-04-04T13:53:33.164Z,12.67
2019-04-04T13:56:03.606Z,3.87
2019-04-04T13:58:34.018Z,6.60
2019-04-04T14:01:04.462Z,6.13
2019-04-04T14:03:34.874Z,6.13
2019-04-04T14:06:05.443Z,6.20
2019-04-04T14:08:39.215Z,4.83
2019-04-04T14:11:08.009Z,4.90
2019-04-04T14:13:38.467Z,3.70
2019-04-04T14:16:08.867Z,4.27
2019-04-04T14:18:40.183Z,4.57
2019-04-04T14:21:11.434Z,4.03
2019-04-04T14:23:41.870Z,6.67
2019-04-04T14:26:12.329Z,4.30
2019-04-04T14:28:42.767Z,4.77
2019-04-04T14:31:13.213Z,4.17
2019-04-04T14:33:43.622Z,5.77
2019-04-04T14:36:14.098Z,4.60
2019-04-04T14:38:44.618Z,4.47
2019-04-04T14:41:15.113Z,4.47
2019-04-04T14:43:45.527Z,5.47
2019-04-04T14:46:15.968Z,6.43
2019-04-04T14:48:46.370Z,7.77
2019-04-04T14:51:16.831Z,8.00
2019-04-04T14:53:47.342Z,10.07
2019-04-04T14:56:17.799Z,5.93
2019-04-04T14:58:48.219Z,7.63
2019-04-04T15:01:18.724Z,6.00
2019-04-04T15:03:49.175Z,6.97
2019-04-04T15:06:19.570Z,5.63
2019-04-04T15:08:50.048Z,6.97
2019-04-04T15:11:24.275Z,6.30
2019-04-04T15:13:52.601Z,6.73
2019-04-04T15:16:23.109Z,5.73
2019-04-04T15:18:53.546Z,12.47
2019-04-04T15:21:23.987Z,10.10
2019-04-04T15:23:54.385Z,7.07
2019-04-04T15:26:24.090Z,5.60
2019-04-04T15:28:54.485Z,8.37
2019-04-04T15:31:24.874Z,6.60
2019-04-04T15:33:55.373Z,6.70
2019-04-04T15:36:25.813Z,6.00
2019-04-04T15:38:56.213Z,6.60
2019-04-04T15:41:36.384Z,8.23
2019-04-04T15:43:58.791Z,8.33
2019-04-04T15:46:29.271Z,7.40
2019-04-04T15:48:59.687Z,10.30
2019-04-04T15:51:30.125Z,9.10
2019-04-04T15:54:00.533Z,8.10
2019-04-04T15:56:30.928Z,11.23
2019-04-04T15:59:01.367Z,7.17
2019-04-04T16:01:31.809Z,8.83
2019-04-04T16:04:02.249Z,7.70
2019-04-04T16:06:32.699Z,7.77
2019-04-04T16:09:05.205Z,10.80
2019-04-04T16:11:35.623Z,16.77
2019-04-04T16:14:06.270Z,10.37
2019-04-04T16:16:36.681Z,12.23
2019-04-04T16:19:07.075Z,11.53
2019-04-04T16:21:37.484Z,13.07
2019-04-04T16:24:07.933Z,10.47
2019-04-04T16:26:38.348Z,9.10
2019-04-04T16:29:08.797Z,7.40
2019-04-04T16:31:39.202Z,8.10
2019-04-04T16:34:09.593Z,6.60
2019-04-04T16:36:40.135Z,7.27
2019-04-04T16:39:10.630Z,7.23
2019-04-04T16:41:41.070Z,8.17
2019-04-04T16:44:11.515Z,8.50
2019-04-04T16:46:41.938Z,9.17
2019-04-04T16:49:12.387Z,8.70
2019-04-04T16:51:42.790Z,6.40
2019-04-04T16:54:13.228Z,7.77
2019-04-04T16:56:43.641Z,8.57
2019-04-04T16:59:14.035Z,7.63
2019-04-04T17:01:44.475Z,9.37
2019-04-04T17:04:14.906Z,9.27
2019-04-04T17:06:45.289Z,6.83
2019-04-04T17:09:15.732Z,7.50
2019-04-04T17:11:46.139Z,11.33
2019-04-04T17:14:16.574Z,6.57
2019-04-04T17:16:46.989Z,7.67
2019-04-04T17:19:17.493Z,5.80
2019-04-04T17:21:47.950Z,8.47
2019-04-04T17:24:18.419Z,8.67
2019-04-04T17:26:48.905Z,10.07
2019-04-04T17:29:19.383Z,8.67
2019-04-04T17:31:50.278Z,7.63
2019-04-04T17:34:20.801Z,7.77
2019-04-04T17:36:51.497Z,12.37
2019-04-04T17:39:22.030Z,13.30
2019-04-04T17:41:52.580Z,17.73
2019-04-04T17:44:23.069Z,27.50
2019-04-04T17:46:53.904Z,13.43
2019-04-04T17:49:24.398Z,9.30
2019-04-04T17:51:54.956Z,7.43
2019-04-04T17:54:25.787Z,8.43
2019-04-04T17:56:56.324Z,15.67
2019-04-04T17:59:26.827Z,31.47
2019-04-04T18:01:57.278Z,22.70
2019-04-04T18:04:27.781Z,20.07
2019-04-04T18:06:58.279Z,16.80
2019-04-04T18:09:32.063Z,15.27
2019-04-04T18:12:01.110Z,12.13
2019-04-04T18:14:31.572Z,12.33
2019-04-04T18:17:02.068Z,12.10
2019-04-04T18:19:32.614Z,12.37
2019-04-04T18:22:03.127Z,18.00
2019-04-04T18:24:33.636Z,40.03
2019-04-04T18:27:04.139Z,38.63
2019-04-04T18:29:34.649Z,27.30
2019-04-04T18:32:05.439Z,10.40
2019-04-04T18:34:35.965Z,11.00
2019-04-04T18:37:06.826Z,9.13
2019-04-04T18:39:37.271Z,11.17
2019-04-04T18:42:07.868Z,7.50
2019-04-04T18:44:38.351Z,9.17
2019-04-04T18:47:08.896Z,8.73
2019-04-04T18:49:39.488Z,11.10
2019-04-04T18:52:09.933Z,8.37
2019-04-04T18:54:40.370Z,7.97
2019-04-04T18:57:13.158Z,8.63
2019-04-04T18:59:43.441Z,9.57
2019-04-04T19:02:14.079Z,10.70
2019-04-04T19:04:44.537Z,9.27
2019-04-04T19:07:15.131Z,8.60
2019-04-04T19:09:45.583Z,11.47
2019-04-04T19:12:16.112Z,8.43
2019-04-04T19:14:46.543Z,8.83
2019-04-04T19:17:17.092Z,11.00
2019-04-04T19:19:47.584Z,9.37
2019-04-04T19:22:18.145Z,8.73
2019-04-04T19:24:48.786Z,8.93
2019-04-04T19:27:19.283Z,10.77
2019-04-04T19:29:49.738Z,11.60
2019-04-04T19:32:20.331Z,8.17
2019-04-04T19:34:50.776Z,8.90
2019-04-04T19:37:21.262Z,8.10
2019-04-04T19:39:54.251Z,7.53
2019-04-04T19:42:23.954Z,7.60
2019-04-04T19:44:54.388Z,8.87
2019-04-04T19:47:24.855Z,8.60
2019-04-04T19:49:55.299Z,7.37
2019-04-04T19:52:25.881Z,6.53
2019-04-04T19:54:56.311Z,6.80
2019-04-04T19:57:26.803Z,6.30
2019-04-04T19:59:57.252Z,9.77
2019-04-04T20:02:27.717Z,7.43
2019-04-04T20:04:58.185Z,6.53
2019-04-04T20:07:28.618Z,7.37
2019-04-04T20:09:59.065Z,7.00
2019-04-04T20:12:29.579Z,7.60
2019-04-04T20:15:00.058Z,9.13
2019-04-04T20:17:30.564Z,7.43
2019-04-04T20:20:01.060Z,10.03
2019-04-04T20:22:31.505Z,7.20
2019-04-04T20:25:01.989Z,7.60
2019-04-04T20:27:32.429Z,7.83
2019-04-04T20:30:03.014Z,8.47
2019-04-04T20:32:33.455Z,8.40
2019-04-04T20:35:04.057Z,8.23
2019-04-04T20:37:34.556Z,8.07
2019-04-04T20:40:05.141Z,8.83
2019-04-04T20:42:35.595Z,7.10
2019-04-04T20:45:07.265Z,9.17
2019-04-04T20:47:37.746Z,7.30
2019-04-04T20:50:08.501Z,7.90
2019-04-04T20:52:38.941Z,8.93
2019-04-04T20:55:09.415Z,7.13
2019-04-04T20:57:39.905Z,7.47
2019-04-04T21:00:10.662Z,7.53
2019-04-04T21:02:41.155Z,8.00
2019-04-04T21:05:11.787Z,7.67
2019-04-04T21:07:42.242Z,8.83
2019-04-04T21:10:12.982Z,6.90
2019-04-04T21:12:43.476Z,6.90
2019-04-04T21:15:14.156Z,6.93
2019-04-04T21:17:44.585Z,7.63
2019-04-04T21:20:15.062Z,7.33
2019-04-04T21:22:45.517Z,7.27
2019-04-04T21:25:16.017Z,8.57
2019-04-04T21:27:46.501Z,8.27
2019-04-04T21:30:17.460Z,7.83
2019-04-04T21:32:47.954Z,8.90
2019-04-04T21:35:18.408Z,7.63
2019-04-04T21:37:48.849Z,9.80
2019-04-04T21:40:19.334Z,7.10
2019-04-04T21:42:49.769Z,8.53
2019-04-04T21:45:20.328Z,9.70
2019-04-04T21:47:50.772Z,7.10
2019-04-04T21:50:21.246Z,8.70
2019-04-04T21:52:51.726Z,9.20
2019-04-04T21:55:22.172Z,8.00
2019-04-04T21:57:52.647Z,9.00
2019-04-04T22:00:23.795Z,7.63
2019-04-04T22:02:54.220Z,7.63
2019-04-04T22:05:24.662Z,7.90
2019-04-04T22:07:55.141Z,7.70
2019-04-04T22:10:25.628Z,8.37
2019-04-04T22:12:56.273Z,8.13
2019-04-04T22:15:26.696Z,9.00
2019-04-04T22:17:57.171Z,8.00
2019-04-04T22:20:27.751Z,7.93
2019-04-04T22:22:58.246Z,9.13
2019-04-04T22:25:28.672Z,9.03
2019-04-04T22:27:59.138Z,8.90
2019-04-04T22:30:29.627Z,7.13
2019-04-04T22:33:01.756Z,7.70
2019-04-04T22:35:32.344Z,8.40
2019-04-04T22:38:02.789Z,7.37
2019-04-04T22:40:33.224Z,8.33
2019-04-04T22:43:03.657Z,7.43
2019-04-04T22:45:34.128Z,7.43
2019-04-04T22:48:04.770Z,7.20
2019-04-04T22:50:35.251Z,8.00
2019-04-04T22:53:05.781Z,7.43
2019-04-04T22:55:36.451Z,7.63
2019-04-04T22:58:06.900Z,8.07
2019-04-04T23:00:37.458Z,10.07
2019-04-04T23:03:08.117Z,8.30
2019-04-04T23:05:38.556Z,8.43
2019-04-04T23:08:08.997Z,8.13
2019-04-04T23:10:39.431Z,9.63
2019-04-04T23:13:09.908Z,7.87
2019-04-04T23:15:40.358Z,7.47
2019-04-04T23:18:10.849Z,8.60
2019-04-04T23:20:41.599Z,7.23
2019-04-04T23:23:12.078Z,7.40
2019-04-04T23:25:42.722Z,8.63
2019-04-04T23:28:13.197Z,7.93
2019-04-04T23:30:43.633Z,9.67
2019-04-04T23:33:14.115Z,8.30
2019-04-04T23:35:44.554Z,8.17
2019-04-04T23:38:15.033Z,7.20
2019-04-04T23:40:45.483Z,8.17
2019-04-04T23:43:15.960Z,8.87
2019-04-04T23:45:46.400Z,8.40
2019-04-04T23:48:16.843Z,8.57
2019-04-04T23:50:47.315Z,9.87
2019-04-04T23:53:17.746Z,8.00
2019-04-04T23:55:48.219Z,8.73
2019-04-04T23:58:18.855Z,8.80
